createdAt,value
2018-06-18T00:00:00.724Z,3.00
2018-06-18T00:02:30.038Z,2.20
2018-06-18T00:04:59.372Z,2.37
2018-06-18T00:07:28.289Z,2.00
2018-06-18T00:09:57.131Z,2.23
2018-06-18T00:12:26.300Z,2.10
2018-06-18T00:14:55.679Z,2.40
2018-06-18T00:17:24.988Z,2.10
2018-06-18T00:19:54.275Z,2.30
2018-06-18T00:22:23.564Z,2.40
2018-06-18T00:24:52.922Z,2.40
2018-06-18T00:27:22.225Z,2.23
2018-06-18T00:29:51.574Z,2.23
2018-06-18T00:32:20.866Z,2.47
2018-06-18T00:34:50.206Z,2.50
2018-06-18T00:37:19.490Z,2.33
2018-06-18T00:39:48.853Z,2.70
2018-06-18T00:42:18.115Z,2.67
2018-06-18T00:44:47.472Z,2.07
2018-06-18T00:47:16.766Z,2.50
2018-06-18T00:49:46.134Z,2.70
2018-06-18T00:52:15.432Z,2.40
2018-06-18T00:54:44.735Z,2.13
2018-06-18T00:57:14.032Z,2.30
2018-06-18T00:59:43.348Z,2.27
2018-06-18T01:02:12.648Z,2.60
2018-06-18T01:04:41.973Z,2.80
2018-06-18T01:07:11.267Z,2.67
2018-06-18T01:09:40.595Z,2.30
2018-06-18T01:12:09.847Z,2.13
2018-06-18T01:14:39.214Z,2.57
2018-06-18T01:17:08.432Z,2.40
2018-06-18T01:19:37.675Z,2.40
2018-06-18T01:22:06.963Z,2.47
2018-06-18T01:24:39.268Z,2.30
2018-06-18T01:27:08.066Z,2.40
2018-06-18T01:29:38.096Z,2.30
2018-06-18T01:32:07.362Z,2.30
2018-06-18T01:34:36.701Z,2.30
2018-06-18T01:37:06.172Z,2.20
2018-06-18T01:39:35.721Z,2.53
2018-06-18T01:42:05.317Z,2.43
2018-06-18T01:44:34.727Z,2.53
2018-06-18T01:47:10.805Z,2.30
2018-06-18T01:49:40.321Z,2.73
2018-06-18T01:52:09.621Z,2.27
2018-06-18T01:54:38.874Z,2.60
2018-06-18T01:57:08.166Z,2.30
2018-06-18T01:59:37.436Z,2.73
2018-06-18T02:02:06.386Z,2.43
2018-06-18T02:04:35.528Z,2.50
2018-06-18T02:07:04.509Z,2.50
2018-06-18T02:09:33.653Z,2.80
2018-06-18T02:12:02.960Z,2.27
2018-06-18T02:14:32.186Z,2.33
2018-06-18T02:17:01.483Z,2.10
2018-06-18T02:19:30.721Z,2.40
2018-06-18T02:21:59.677Z,2.60
2018-06-18T02:24:28.764Z,2.30
2018-06-18T02:27:03.212Z,2.60
2018-06-18T02:30:37.727Z,2.33
2018-06-18T02:33:12.470Z,2.30
2018-06-18T02:35:47.102Z,2.67
2018-06-18T02:38:21.565Z,2.67
2018-06-18T02:40:51.041Z,2.57
2018-06-18T02:43:20.621Z,2.17
2018-06-18T02:45:50.260Z,2.53
2018-06-18T02:48:19.970Z,2.70
2018-06-18T02:50:49.484Z,2.47
2018-06-18T02:53:19.064Z,2.37
2018-06-18T02:55:50.251Z,2.63
2018-06-18T02:58:19.823Z,2.83
2018-06-18T03:00:48.904Z,2.37
2018-06-18T03:03:18.286Z,2.83
2018-06-18T03:05:47.688Z,2.70
2018-06-18T03:08:16.961Z,2.70
2018-06-18T03:10:46.203Z,2.53
2018-06-18T03:13:15.490Z,2.20
2018-06-18T03:15:44.802Z,2.43
2018-06-18T03:18:19.422Z,2.37
2018-06-18T03:20:54.050Z,2.60
2018-06-18T03:23:28.581Z,2.60
2018-06-18T03:26:03.172Z,2.30
2018-06-18T03:28:37.719Z,2.53
2018-06-18T03:31:07.216Z,2.40
2018-06-18T03:33:36.492Z,2.60
2018-06-18T03:36:07.670Z,2.80
2018-06-18T03:38:37.199Z,2.50
2018-06-18T03:41:07.124Z,2.30
2018-06-18T03:43:40.228Z,2.70
2018-06-18T03:46:09.689Z,2.53
2018-06-18T03:48:39.151Z,2.80
2018-06-18T03:51:08.670Z,2.57
2018-06-18T03:53:38.216Z,2.40
2018-06-18T03:56:07.742Z,2.20
2018-06-18T03:58:37.287Z,2.50
2018-06-18T04:01:22.079Z,2.90
2018-06-18T04:03:56.907Z,3.10
2018-06-18T04:06:31.537Z,2.50
2018-06-18T04:09:06.297Z,2.80
2018-06-18T04:11:40.965Z,8.00
2018-06-18T04:14:10.471Z,6.57
2018-06-18T04:16:39.991Z,3.93
2018-06-18T04:19:09.475Z,4.03
2018-06-18T04:21:38.950Z,4.20
2018-06-18T04:24:08.588Z,2.60
2018-06-18T04:26:38.056Z,6.33
2018-06-18T04:29:07.616Z,3.43
2018-06-18T04:31:37.117Z,2.83
2018-06-18T04:35:13.982Z,3.17
2018-06-18T04:37:43.532Z,3.10
2018-06-18T04:40:12.796Z,3.00
2018-06-18T04:42:47.558Z,3.20
2018-06-18T04:45:22.127Z,2.50
2018-06-18T04:47:56.787Z,2.57
2018-06-18T04:50:31.448Z,2.50
2018-06-18T04:53:00.386Z,2.67
2018-06-18T04:55:29.536Z,2.80
2018-06-18T04:57:58.847Z,2.77
2018-06-18T05:00:39.715Z,2.73
2018-06-18T05:03:08.733Z,2.60
2018-06-18T05:05:37.918Z,2.87
2018-06-18T05:09:12.089Z,2.80
2018-06-18T05:11:41.276Z,2.93
2018-06-18T05:14:10.515Z,2.60
2018-06-18T05:16:39.848Z,2.80
2018-06-18T05:19:09.092Z,2.60
2018-06-18T05:21:38.387Z,2.70
2018-06-18T05:24:07.668Z,2.97
2018-06-18T05:26:39.992Z,3.03
2018-06-18T05:29:09.244Z,2.73
2018-06-18T05:31:38.541Z,2.40
2018-06-18T05:34:08.344Z,3.00
2018-06-18T05:36:37.906Z,2.80
2018-06-18T05:39:09.115Z,2.63
2018-06-18T05:41:38.632Z,3.03
2018-06-18T05:44:08.128Z,2.80
2018-06-18T05:46:37.607Z,2.80
2018-06-18T05:49:06.939Z,3.07
2018-06-18T05:51:36.195Z,2.50
2018-06-18T05:54:05.114Z,2.37
2018-06-18T05:56:34.241Z,2.60
2018-06-18T05:59:03.491Z,2.73
2018-06-18T06:01:32.784Z,2.80
2018-06-18T06:04:01.720Z,2.33
2018-06-18T06:06:30.967Z,2.73
2018-06-18T06:08:59.970Z,2.50
2018-06-18T06:11:29.122Z,2.70
2018-06-18T06:13:58.383Z,2.83
2018-06-18T06:16:27.681Z,2.50
2018-06-18T06:18:56.931Z,2.70
2018-06-18T06:21:26.217Z,2.80
2018-06-18T06:23:55.476Z,3.30
2018-06-18T06:26:30.172Z,3.07
2018-06-18T06:28:59.440Z,2.40
2018-06-18T06:31:29.529Z,2.27
2018-06-18T06:33:58.760Z,2.83
2018-06-18T06:36:28.491Z,2.33
2018-06-18T06:38:57.776Z,2.40
2018-06-18T06:41:28.695Z,2.40
2018-06-18T06:43:57.925Z,2.50
2018-06-18T06:46:27.261Z,2.77
2018-06-18T06:48:56.795Z,2.30
2018-06-18T06:51:26.320Z,2.70
2018-06-18T06:53:55.923Z,2.87
2018-06-18T06:56:25.568Z,2.33
2018-06-18T06:58:54.704Z,2.70
2018-06-18T07:01:24.099Z,2.47
2018-06-18T07:03:53.627Z,2.50
2018-06-18T07:06:23.099Z,2.57
2018-06-18T07:08:52.603Z,2.40
2018-06-18T07:11:22.204Z,2.50
2018-06-18T07:13:51.410Z,2.43
2018-06-18T07:16:20.873Z,2.73
2018-06-18T07:18:50.399Z,2.50
2018-06-18T07:21:19.530Z,2.40
2018-06-18T07:23:48.418Z,2.57
2018-06-18T07:26:17.409Z,2.40
2018-06-18T07:28:46.790Z,2.40
2018-06-18T07:31:16.253Z,2.30
2018-06-18T07:33:45.741Z,2.10
2018-06-18T07:36:15.199Z,2.30
2018-06-18T07:38:44.481Z,2.33
2018-06-18T07:41:13.719Z,2.43
2018-06-18T07:43:43.092Z,2.23
2018-06-18T07:46:12.366Z,2.53
2018-06-18T07:48:41.679Z,2.47
2018-06-18T07:51:10.923Z,1.93
2018-06-18T07:53:40.256Z,1.93
2018-06-18T07:56:09.500Z,2.23
2018-06-18T07:58:38.478Z,2.33
2018-06-18T08:01:07.604Z,2.53
2018-06-18T08:03:36.590Z,1.97
2018-06-18T08:06:05.762Z,2.20
2018-06-18T08:08:35.012Z,1.90
2018-06-18T08:11:04.318Z,1.93
2018-06-18T08:13:33.582Z,2.53
2018-06-18T08:16:02.887Z,2.00
2018-06-18T08:18:31.820Z,2.03
2018-06-18T08:21:00.967Z,1.80
2018-06-18T08:23:30.209Z,2.00
2018-06-18T08:25:59.488Z,1.80
2018-06-18T08:28:28.507Z,1.83
2018-06-18T08:30:57.363Z,1.87
2018-06-18T08:33:26.459Z,2.40
2018-06-18T08:35:56.008Z,2.17
2018-06-18T08:38:25.302Z,2.40
2018-06-18T08:40:54.619Z,2.33
2018-06-18T08:43:23.864Z,2.17
2018-06-18T08:45:53.156Z,2.30
2018-06-18T08:48:27.734Z,1.90
2018-06-18T08:51:02.332Z,2.13
2018-06-18T08:53:36.932Z,2.60
2018-06-18T08:56:11.562Z,3.20
2018-06-18T08:58:45.945Z,2.57
2018-06-18T09:01:19.863Z,2.70
2018-06-18T09:03:50.116Z,2.23
2018-06-18T09:06:19.716Z,2.30
2018-06-18T09:08:48.680Z,2.47
2018-06-18T09:11:18.936Z,2.53
2018-06-18T09:13:48.171Z,2.30
2018-06-18T09:16:17.529Z,2.60
2018-06-18T09:18:46.790Z,2.63
2018-06-18T09:21:16.040Z,2.40
2018-06-18T09:23:45.493Z,2.07
2018-06-18T09:26:15.003Z,2.20
2018-06-18T09:28:44.532Z,1.70
2018-06-18T09:31:14.065Z,2.00
2018-06-18T09:33:44.488Z,2.03
2018-06-18T09:36:16.942Z,2.20
2018-06-18T09:38:46.284Z,2.20
2018-06-18T09:41:15.317Z,2.73
2018-06-18T09:43:44.471Z,2.57
2018-06-18T09:46:13.815Z,2.30
2018-06-18T09:48:48.472Z,2.23
2018-06-18T09:51:23.170Z,2.20
2018-06-18T09:53:57.733Z,1.93
2018-06-18T09:56:32.468Z,2.20
2018-06-18T09:59:07.055Z,2.10
2018-06-18T10:01:36.331Z,2.00
2018-06-18T10:04:05.659Z,1.87
2018-06-18T10:06:36.740Z,1.80
2018-06-18T10:09:07.362Z,1.97
2018-06-18T10:11:37.072Z,1.50
2018-06-18T10:14:08.543Z,1.87
2018-06-18T10:16:37.921Z,1.90
2018-06-18T10:19:07.180Z,1.53
2018-06-18T10:21:36.417Z,1.80
2018-06-18T10:24:05.826Z,1.80
2018-06-18T10:26:34.760Z,2.10
2018-06-18T10:29:03.627Z,2.20
2018-06-18T10:31:32.751Z,1.70
2018-06-18T10:34:07.434Z,2.00
2018-06-18T10:36:41.703Z,1.63
2018-06-18T10:39:16.092Z,1.60
2018-06-18T10:41:50.741Z,1.60
2018-06-18T10:44:20.008Z,1.90
2018-06-18T10:46:49.273Z,1.90
2018-06-18T10:49:18.532Z,2.10
2018-06-18T10:51:47.818Z,2.00
2018-06-18T10:54:17.228Z,1.80
2018-06-18T10:56:46.889Z,1.80
2018-06-18T10:59:16.421Z,1.67
2018-06-18T11:01:45.912Z,1.60
2018-06-18T11:04:20.612Z,1.80
2018-06-18T11:06:50.134Z,2.00
2018-06-18T11:09:22.392Z,1.63
2018-06-18T11:11:52.725Z,1.90
2018-06-18T11:14:22.240Z,1.90
2018-06-18T11:16:57.272Z,1.97
2018-06-18T11:19:32.006Z,1.77
2018-06-18T11:22:08.064Z,2.37
2018-06-18T11:24:42.851Z,2.00
2018-06-18T11:27:13.254Z,2.27
2018-06-18T11:29:42.856Z,1.97
2018-06-18T11:32:12.365Z,1.83
2018-06-18T11:34:41.925Z,1.67
2018-06-18T11:37:11.473Z,2.10
2018-06-18T11:39:40.835Z,1.77
2018-06-18T11:42:10.145Z,1.97
2018-06-18T11:44:39.439Z,1.80
2018-06-18T11:47:08.905Z,1.70
2018-06-18T11:49:38.375Z,1.53
2018-06-18T11:52:07.479Z,1.53
2018-06-18T11:54:36.859Z,1.87
2018-06-18T11:57:06.041Z,1.93
2018-06-18T11:59:40.728Z,1.40
2018-06-18T12:02:15.634Z,1.40
2018-06-18T12:04:50.117Z,2.03
2018-06-18T12:07:24.679Z,1.50
2018-06-18T12:09:54.443Z,1.77
2018-06-18T12:12:23.877Z,1.80
2018-06-18T12:14:53.473Z,1.77
2018-06-18T12:17:22.951Z,1.50
2018-06-18T12:19:52.420Z,1.70
2018-06-18T12:22:21.723Z,1.63
2018-06-18T12:24:51.072Z,1.60
2018-06-18T12:27:23.583Z,2.13
2018-06-18T12:29:52.873Z,1.80
2018-06-18T12:32:22.135Z,1.67
2018-06-18T12:34:51.427Z,1.70
2018-06-18T12:37:20.690Z,1.50
2018-06-18T12:39:50.200Z,1.70
2018-06-18T12:42:19.119Z,2.37
2018-06-18T12:44:53.408Z,1.57
2018-06-18T12:47:28.012Z,1.67
2018-06-18T12:50:02.575Z,1.87
2018-06-18T12:52:37.020Z,1.47
2018-06-18T12:55:11.649Z,1.80
2018-06-18T12:57:40.907Z,1.90
2018-06-18T13:00:10.219Z,1.77
2018-06-18T13:02:44.962Z,1.90
2018-06-18T13:05:14.272Z,1.63
2018-06-18T13:07:43.527Z,1.73
2018-06-18T13:10:12.571Z,1.53
2018-06-18T13:12:41.671Z,1.70
2018-06-18T13:15:10.939Z,1.57
2018-06-18T13:17:40.287Z,1.70
2018-06-18T13:20:09.575Z,1.90
2018-06-18T13:22:38.872Z,2.17
2018-06-18T13:25:08.135Z,1.40
2018-06-18T13:27:42.623Z,1.90
2018-06-18T13:30:11.912Z,1.87
2018-06-18T13:32:41.237Z,2.23
2018-06-18T13:35:10.491Z,1.93
2018-06-18T13:37:45.195Z,2.20
2018-06-18T13:40:19.767Z,2.30
2018-06-18T13:42:54.457Z,2.00
2018-06-18T13:45:29.119Z,2.80
2018-06-18T13:48:03.760Z,1.93
2018-06-18T13:50:32.687Z,1.80
2018-06-18T13:53:01.513Z,1.70
2018-06-18T13:55:30.687Z,2.00
2018-06-18T13:57:59.937Z,2.33
2018-06-18T14:00:29.214Z,2.13
2018-06-18T14:02:58.826Z,1.90
2018-06-18T14:05:28.344Z,1.90
2018-06-18T14:07:58.004Z,2.10
2018-06-18T14:10:27.676Z,2.30
2018-06-18T14:12:57.362Z,1.63
2018-06-18T14:15:26.942Z,1.93
2018-06-18T14:17:56.563Z,1.90
2018-06-18T14:20:26.843Z,2.10
2018-06-18T14:22:56.120Z,1.67
2018-06-18T14:25:25.480Z,1.87
2018-06-18T14:27:54.675Z,2.00
2018-06-18T14:30:29.375Z,1.87
2018-06-18T14:34:05.642Z,1.80
2018-06-18T14:36:40.092Z,2.07
2018-06-18T14:39:14.811Z,1.57
2018-06-18T14:41:44.108Z,1.90
2018-06-18T14:44:13.394Z,1.90
2018-06-18T14:46:42.620Z,2.10
2018-06-18T14:49:11.992Z,2.20
2018-06-18T14:51:41.307Z,2.07
2018-06-18T14:54:10.670Z,2.10
2018-06-18T14:56:39.837Z,1.90
2018-06-18T14:59:14.432Z,1.73
2018-06-18T15:01:43.637Z,2.10
2018-06-18T15:04:12.892Z,1.93
2018-06-18T15:06:42.159Z,2.00
2018-06-18T15:09:12.605Z,2.00
2018-06-18T15:11:42.594Z,1.90
2018-06-18T15:14:11.955Z,2.10
2018-06-18T15:16:40.919Z,1.83
2018-06-18T15:19:10.139Z,2.20
2018-06-18T15:21:46.169Z,2.17
2018-06-18T15:24:20.415Z,2.47
2018-06-18T15:26:49.900Z,1.80
2018-06-18T15:29:19.295Z,2.00
2018-06-18T15:31:48.539Z,2.23
2018-06-18T15:34:17.791Z,2.10
2018-06-18T15:36:47.073Z,2.40
2018-06-18T15:39:16.340Z,1.93
2018-06-18T15:41:45.574Z,2.23
2018-06-18T15:44:14.955Z,2.17
2018-06-18T15:46:44.116Z,2.37
2018-06-18T15:49:13.392Z,2.30
2018-06-18T15:51:42.862Z,2.13
2018-06-18T15:54:12.334Z,2.20
2018-06-18T15:56:41.835Z,2.20
2018-06-18T15:59:11.447Z,2.23
2018-06-18T16:01:40.573Z,2.20
2018-06-18T16:04:09.939Z,2.33
2018-06-18T16:06:39.444Z,2.20
2018-06-18T16:09:10.071Z,2.33
2018-06-18T16:11:39.671Z,2.40
2018-06-18T16:14:10.004Z,2.60
2018-06-18T16:16:39.833Z,2.47
2018-06-18T16:19:09.224Z,2.30
2018-06-18T16:21:38.755Z,2.47
2018-06-18T16:24:08.255Z,3.17
2018-06-18T16:26:37.785Z,2.60
2018-06-18T16:29:07.264Z,2.50
2018-06-18T16:31:36.846Z,2.17
2018-06-18T16:34:06.392Z,2.37
2018-06-18T16:36:35.952Z,2.17
2018-06-18T16:39:08.149Z,2.23
2018-06-18T16:41:37.215Z,2.20
2018-06-18T16:44:06.694Z,2.57
2018-06-18T16:46:36.455Z,2.20
2018-06-18T16:49:05.727Z,2.73
2018-06-18T16:51:34.983Z,2.30
2018-06-18T16:54:04.294Z,1.90
2018-06-18T16:56:33.596Z,2.00
2018-06-18T16:59:02.960Z,2.03
2018-06-18T17:01:31.908Z,2.10
2018-06-18T17:04:01.038Z,1.90
2018-06-18T17:06:30.356Z,2.17
2018-06-18T17:08:59.882Z,2.03
2018-06-18T17:11:29.339Z,2.20
2018-06-18T17:13:58.799Z,2.00
2018-06-18T17:16:28.095Z,1.87
2018-06-18T17:18:57.361Z,1.90
2018-06-18T17:21:26.753Z,1.70
2018-06-18T17:23:56.007Z,1.70
2018-06-18T17:26:25.281Z,1.50
2018-06-18T17:28:54.696Z,2.10
2018-06-18T17:31:24.329Z,1.67
2018-06-18T17:33:53.776Z,1.60
2018-06-18T17:36:22.943Z,2.10
2018-06-18T17:38:52.368Z,1.87
2018-06-18T17:41:21.503Z,1.60
2018-06-18T17:43:50.916Z,1.97
2018-06-18T17:46:20.356Z,2.00
2018-06-18T17:48:49.957Z,1.90
2018-06-18T17:51:19.211Z,1.90
2018-06-18T17:53:48.496Z,1.90
2018-06-18T17:56:17.488Z,1.73
2018-06-18T17:58:46.607Z,1.83
2018-06-18T18:01:15.923Z,1.93
2018-06-18T18:03:45.152Z,2.10
2018-06-18T18:06:14.424Z,1.90
2018-06-18T18:08:43.699Z,1.90
2018-06-18T18:11:12.952Z,1.80
2018-06-18T18:13:42.473Z,1.97
2018-06-18T18:16:11.975Z,1.90
2018-06-18T18:18:41.606Z,1.77
2018-06-18T18:21:11.085Z,2.03
2018-06-18T18:23:40.701Z,2.10
2018-06-18T18:26:10.152Z,2.00
2018-06-18T18:28:39.746Z,1.83
2018-06-18T18:31:08.657Z,1.87
2018-06-18T18:33:37.804Z,1.90
2018-06-18T18:36:07.102Z,2.20
2018-06-18T18:38:36.371Z,1.70
2018-06-18T18:41:05.644Z,1.63
2018-06-18T18:43:34.941Z,1.70
2018-06-18T18:46:04.232Z,1.80
2018-06-18T18:48:33.852Z,1.80
2018-06-18T18:51:03.394Z,1.60
2018-06-18T18:53:33.151Z,1.80
2018-06-18T18:56:13.958Z,1.70
2018-06-18T18:59:11.898Z,1.70
2018-06-18T19:01:41.413Z,1.80
2018-06-18T19:04:13.414Z,2.03
2018-06-18T19:06:42.659Z,1.87
2018-06-18T19:09:12.562Z,1.77
2018-06-18T19:11:41.988Z,1.70
2018-06-18T19:14:11.259Z,2.03
2018-06-18T19:16:40.537Z,1.83
2018-06-18T19:19:09.832Z,1.90
2018-06-18T19:21:39.098Z,1.60
2018-06-18T19:24:08.396Z,1.80
2018-06-18T19:26:37.657Z,7.47
2018-06-18T19:29:06.932Z,3.40
2018-06-18T19:31:36.179Z,2.40
2018-06-18T19:34:09.723Z,2.20
2018-06-18T19:36:42.968Z,2.00
2018-06-18T19:39:13.075Z,1.93
2018-06-18T19:41:42.782Z,2.20
2018-06-18T19:44:12.097Z,2.40
2018-06-18T19:47:49.687Z,2.27
2018-06-18T19:50:19.359Z,2.30
2018-06-18T19:52:48.899Z,2.43
2018-06-18T19:55:20.668Z,2.50
2018-06-18T19:57:49.740Z,2.30
2018-06-18T20:00:19.324Z,3.47
2018-06-18T20:02:48.919Z,4.63
2018-06-18T20:05:18.554Z,3.10
2018-06-18T20:07:55.421Z,2.60
2018-06-18T20:10:25.450Z,2.50
2018-06-18T20:12:55.282Z,2.23
2018-06-18T20:15:25.094Z,2.60
2018-06-18T20:17:54.484Z,2.30
2018-06-18T20:20:23.804Z,2.63
2018-06-18T20:22:53.067Z,3.03
2018-06-18T20:25:32.238Z,3.00
2018-06-18T20:28:01.471Z,3.37
2018-06-18T20:30:30.769Z,2.97
2018-06-18T20:33:00.028Z,3.13
2018-06-18T20:35:32.407Z,3.03
2018-06-18T20:38:01.664Z,3.13
2018-06-18T20:40:30.948Z,3.00
2018-06-18T20:43:00.215Z,2.93
2018-06-18T20:45:29.869Z,2.90
2018-06-18T20:47:59.159Z,2.67
2018-06-18T20:50:28.412Z,2.60
2018-06-18T20:52:57.771Z,2.90
2018-06-18T20:55:27.149Z,2.90
2018-06-18T20:57:56.673Z,2.80
2018-06-18T21:00:26.245Z,2.90
2018-06-18T21:02:55.507Z,2.87
2018-06-18T21:05:24.760Z,2.40
2018-06-18T21:07:54.107Z,2.57
2018-06-18T21:10:23.394Z,2.50
2018-06-18T21:12:52.654Z,2.57
2018-06-18T21:15:21.956Z,2.67
2018-06-18T21:17:51.227Z,2.47
2018-06-18T21:20:20.476Z,2.53
2018-06-18T21:22:49.758Z,2.73
2018-06-18T21:25:18.976Z,2.87
2018-06-18T21:27:48.265Z,2.43
2018-06-18T21:30:17.499Z,2.50
2018-06-18T21:32:46.776Z,2.70
2018-06-18T21:35:16.012Z,2.40
2018-06-18T21:37:45.340Z,2.80
2018-06-18T21:40:14.291Z,2.67
2018-06-18T21:42:43.435Z,2.50
2018-06-18T21:45:29.053Z,2.50
2018-06-18T21:47:59.159Z,2.30
2018-06-18T21:50:28.394Z,2.80
2018-06-18T21:52:57.752Z,2.70
2018-06-18T21:55:26.999Z,2.87
2018-06-18T21:57:56.262Z,2.57
2018-06-18T22:00:37.123Z,2.60
2018-06-18T22:03:06.743Z,2.67
2018-06-18T22:05:36.003Z,2.60
2018-06-18T22:08:06.193Z,2.57
2018-06-18T22:10:35.296Z,2.90
2018-06-18T22:13:04.620Z,2.40
2018-06-18T22:15:33.627Z,2.30
2018-06-18T22:18:02.868Z,2.60
2018-06-18T22:20:32.219Z,2.77
2018-06-18T22:23:01.194Z,2.60
2018-06-18T22:25:30.361Z,2.53
2018-06-18T22:27:59.984Z,2.47
2018-06-18T22:30:29.261Z,2.70
2018-06-18T22:32:58.511Z,2.70
2018-06-18T22:35:27.773Z,2.60
2018-06-18T22:37:57.088Z,2.90
2018-06-18T22:40:26.339Z,2.47
2018-06-18T22:42:55.612Z,2.47
2018-06-18T22:45:24.922Z,2.43
2018-06-18T22:47:53.859Z,2.50
2018-06-18T22:50:23.011Z,2.77
2018-06-18T22:52:52.004Z,2.50
2018-06-18T22:55:21.174Z,2.00
2018-06-18T22:57:50.404Z,2.27
2018-06-18T23:00:19.351Z,2.80
2018-06-18T23:02:48.454Z,2.70
2018-06-18T23:05:17.749Z,2.63
2018-06-18T23:07:47.045Z,2.37
2018-06-18T23:10:16.395Z,2.43
2018-06-18T23:12:45.846Z,2.33
2018-06-18T23:15:15.633Z,2.40
2018-06-18T23:17:44.913Z,2.43
2018-06-18T23:20:13.859Z,2.30
2018-06-18T23:22:42.979Z,2.47
2018-06-18T23:25:12.297Z,2.20
2018-06-18T23:27:41.589Z,2.43
2018-06-18T23:30:10.919Z,2.73
2018-06-18T23:32:40.181Z,2.47
2018-06-18T23:35:09.137Z,2.40
2018-06-18T23:37:38.299Z,2.37
2018-06-18T23:40:07.719Z,2.23
2018-06-18T23:42:37.343Z,2.30
2018-06-18T23:45:07.096Z,2.43
2018-06-18T23:47:36.891Z,2.20
2018-06-18T23:50:09.304Z,2.50
2018-06-18T23:52:38.869Z,2.40
2018-06-18T23:55:08.418Z,2.27
2018-06-18T23:57:37.931Z,2.50
